Kastav — 9AA6417 — position and weather

sailwx.info

Track history (hours):
 
Tides and Currents Weather Stations Pressure Air Temp Water Temp Dewpoint Dewpoint Depression Visibility Wind Speed Wind Dir Waves Ship Positions

Kastav

Last reported at 2016-Sep-17 00:33 UTC. Time now 2016-Sep-26 22:30 UTC.
Position N 49°46' W 003°47'.
Warning: this ship's position is 9 days out of date.

Length 195 m; draft 11.6 m.

Type: Tanker. MMSI: 238257000.

Date/timePositionNaut miles runAvg speedWind from/ knotsBaromVisibWave heightAir tempDewpointWater temp
2016-Sep-17 00:33N 49°46' W 003°47'14512.1
2016-Sep-16 12:33N 50°29' W 000°11'5811.6
2016-Sep-16 07:33N 50°55' E 001°11'5213.0
2016-Sep-16 03:34N 51°34' E 002°07'1211.0
2016-Sep-16 02:30N 51°43' E 002°19'1910.0
2016-Sep-16 00:33N 51°60' E 002°35'3511.6
2016-Sep-15 21:33N 52°32' E 002°55'1413.3
2016-Sep-15 20:31N 52°44' E 003°06'37212.0
2016-Sep-14 13:34N 57°42' E 009°36'1212.3
2016-Sep-14 12:34N 57°45' E 009°58'2412.2
2016-Sep-14 10:34N 57°48' E 010°43'1111.3
2016-Sep-14 09:33N 57°41' E 011°00'1313.1
2016-Sep-14 08:33N 57°32' E 011°18'1212.6
2016-Sep-14 07:33N 57°21' E 011°30'1313.0
2016-Sep-14 06:33N 57°09' E 011°38'3411.4
2016-Sep-14 03:34N 56°35' E 011°43'6412.7
2016-Sep-13 22:34N 55°39' E 010°47'2512.6
2016-Sep-13 20:33N 55°16' E 011°04'2311.6
2016-Sep-13 18:33N 54°54' E 010°52'1312.8
2016-Sep-13 17:33N 54°42' E 010°47'1111.0
2016-Sep-13 16:33N 54°36' E 011°03'5110.3
2016-Sep-13 11:33N 54°42' E 012°31'2412.2
2016-Sep-13 09:33N 54°53' E 013°09'2612.8
2016-Sep-13 07:33N 55°01' E 013°51'1211.9
2016-Sep-13 06:33N 55°07' E 014°09'2512.5
2016-Sep-13 04:33N 55°27' E 014°36'2512.3
2016-Sep-13 02:33N 55°37' E 015°15'3812.7
2016-Sep-12 23:33N 55°47' E 016°21'2512.4
2016-Sep-12 21:33N 55°53' E 017°04'2412.2
2016-Sep-12 19:33N 56°00' E 017°45'2512.5
2016-Sep-12 17:33N 56°14' E 018°23'3712.2
2016-Sep-12 14:33N 56°42' E 019°05'1312.6
2016-Sep-12 13:33N 56°53' E 019°17'1312.4
2016-Sep-12 12:33N 57°04' E 019°27'16112.3
2016-Sep-11 23:30N 59°21' E 022°08'1112.0
2016-Sep-11 22:32N 59°28' E 022°26'2311.7
2016-Sep-11 20:33N 59°36' E 023°09'1111.4
2016-Sep-11 19:33N 59°39' E 023°30'1211.6
2016-Sep-11 18:33N 59°43' E 023°52'5012.0
2016-Sep-11 14:22N 59°53' E 025°30'1112.1
2016-Sep-11 13:25N 59°55' E 025°52'1112.2
2016-Sep-11 12:33N 59°54' E 026°13'1311.9
2016-Sep-11 11:27N 59°48' E 026°37'1112.3
2016-Sep-11 10:31N 59°42' E 026°57'2412.3
2016-Sep-11 08:34N 59°30' E 027°38'6 5.5
2016-Sep-11 07:33N 59°25' E 027°44'0 0.2
2016-Sep-11 06:34N 59°25' E 027°43'0 0.0
2016-Sep-09 03:33N 59°25' E 027°43'0 0.0
2016-Sep-09 02:33N 59°25' E 027°43'3 3.3
2016-Sep-09 01:33N 59°29' E 027°42'14 6.0
2016-Sep-08 23:15N 59°35' E 027°18'912.8
2016-Sep-08 22:32N 59°40' E 027°03'1312.9
2016-Sep-08 21:33N 59°47' E 026°41'1312.7
2016-Sep-08 20:33N 59°53' E 026°19'3812.6
2016-Sep-08 17:33N 59°47' E 025°04'1312.9
2016-Sep-08 16:33N 59°45' E 024°40'1313.0
2016-Sep-08 15:34N 59°42' E 024°15'1312.9
2016-Sep-08 14:33N 59°38' E 023°50'1312.8
2016-Sep-08 13:33N 59°33' E 023°26'24911.2
2016-Sep-07 15:17N 56°16' E 018°40'1013.0
2016-Sep-07 14:33N 56°11' E 018°26'1813.0
2016-Sep-07 13:08N 56°01' E 017°58'813.2
2016-Sep-07 12:33N 55°56' E 017°47'7013.1
2016-Sep-07 07:12N 55°39' E 015°46'813.0
2016-Sep-07 06:33N 55°37' E 015°32'2613.1
2016-Sep-07 04:33N 55°26' E 014°50'1312.9
2016-Sep-07 03:33N 55°18' E 014°32'1212.4
2016-Sep-07 02:34N 55°10' E 014°16'1313.2
2016-Sep-07 01:33N 55°11' E 013°53'1313.0
2016-Sep-07 00:34N 55°12' E 013°30'  
Track history (hours):
 
Tides and Currents Weather Stations Pressure Air Temp Water Temp Dewpoint Dewpoint Depression Visibility Wind Speed Wind Dir Waves Ship Positions

Kastav

Last reported at 2016-Sep-17 00:33 UTC. Time now 2016-Sep-26 22:30 UTC.
Position N 49°46' W 003°47'.
Warning: this ship's position is 9 days out of date.

Length 195 m; draft 11.6 m.

Type: Tanker. MMSI: 238257000.

Date/timePositionNaut miles runAvg speedWind from/ knotsBaromVisibWave heightAir tempDewpointWater temp
2016-Sep-17 00:33N 49°46' W 003°47'14512.1
2016-Sep-16 12:33N 50°29' W 000°11'5811.6
2016-Sep-16 07:33N 50°55' E 001°11'5213.0
2016-Sep-16 03:34N 51°34' E 002°07'1211.0
2016-Sep-16 02:30N 51°43' E 002°19'1910.0
2016-Sep-16 00:33N 51°60' E 002°35'3511.6
2016-Sep-15 21:33N 52°32' E 002°55'1413.3
2016-Sep-15 20:31N 52°44' E 003°06'37212.0
2016-Sep-14 13:34N 57°42' E 009°36'1212.3
2016-Sep-14 12:34N 57°45' E 009°58'2412.2
2016-Sep-14 10:34N 57°48' E 010°43'1111.3
2016-Sep-14 09:33N 57°41' E 011°00'1313.1
2016-Sep-14 08:33N 57°32' E 011°18'1212.6
2016-Sep-14 07:33N 57°21' E 011°30'1313.0
2016-Sep-14 06:33N 57°09' E 011°38'3411.4
2016-Sep-14 03:34N 56°35' E 011°43'6412.7
2016-Sep-13 22:34N 55°39' E 010°47'2512.6
2016-Sep-13 20:33N 55°16' E 011°04'2311.6
2016-Sep-13 18:33N 54°54' E 010°52'1312.8
2016-Sep-13 17:33N 54°42' E 010°47'1111.0
2016-Sep-13 16:33N 54°36' E 011°03'5110.3
2016-Sep-13 11:33N 54°42' E 012°31'2412.2
2016-Sep-13 09:33N 54°53' E 013°09'2612.8
2016-Sep-13 07:33N 55°01' E 013°51'1211.9
2016-Sep-13 06:33N 55°07' E 014°09'2512.5
2016-Sep-13 04:33N 55°27' E 014°36'2512.3
2016-Sep-13 02:33N 55°37' E 015°15'3812.7
2016-Sep-12 23:33N 55°47' E 016°21'2512.4
2016-Sep-12 21:33N 55°53' E 017°04'2412.2
2016-Sep-12 19:33N 56°00' E 017°45'2512.5
2016-Sep-12 17:33N 56°14' E 018°23'3712.2
2016-Sep-12 14:33N 56°42' E 019°05'1312.6
2016-Sep-12 13:33N 56°53' E 019°17'1312.4
2016-Sep-12 12:33N 57°04' E 019°27'16112.3
2016-Sep-11 23:30N 59°21' E 022°08'1112.0
2016-Sep-11 22:32N 59°28' E 022°26'2311.7
2016-Sep-11 20:33N 59°36' E 023°09'1111.4
2016-Sep-11 19:33N 59°39' E 023°30'1211.6
2016-Sep-11 18:33N 59°43' E 023°52'5012.0
2016-Sep-11 14:22N 59°53' E 025°30'1112.1
2016-Sep-11 13:25N 59°55' E 025°52'1112.2
2016-Sep-11 12:33N 59°54' E 026°13'1311.9
2016-Sep-11 11:27N 59°48' E 026°37'1112.3
2016-Sep-11 10:31N 59°42' E 026°57'2412.3
2016-Sep-11 08:34N 59°30' E 027°38'6 5.5
2016-Sep-11 07:33N 59°25' E 027°44'0 0.2
2016-Sep-11 06:34N 59°25' E 027°43'0 0.0
2016-Sep-09 03:33N 59°25' E 027°43'0 0.0
2016-Sep-09 02:33N 59°25' E 027°43'3 3.3
2016-Sep-09 01:33N 59°29' E 027°42'14 6.0
2016-Sep-08 23:15N 59°35' E 027°18'912.8
2016-Sep-08 22:32N 59°40' E 027°03'1312.9
2016-Sep-08 21:33N 59°47' E 026°41'1312.7
2016-Sep-08 20:33N 59°53' E 026°19'3812.6
2016-Sep-08 17:33N 59°47' E 025°04'1312.9
2016-Sep-08 16:33N 59°45' E 024°40'1313.0
2016-Sep-08 15:34N 59°42' E 024°15'1312.9
2016-Sep-08 14:33N 59°38' E 023°50'1312.8
2016-Sep-08 13:33N 59°33' E 023°26'24911.2
2016-Sep-07 15:17N 56°16' E 018°40'1013.0
2016-Sep-07 14:33N 56°11' E 018°26'1813.0
2016-Sep-07 13:08N 56°01' E 017°58'813.2
2016-Sep-07 12:33N 55°56' E 017°47'7013.1
2016-Sep-07 07:12N 55°39' E 015°46'813.0
2016-Sep-07 06:33N 55°37' E 015°32'2613.1
2016-Sep-07 04:33N 55°26' E 014°50'1312.9
2016-Sep-07 03:33N 55°18' E 014°32'1212.4
2016-Sep-07 02:34N 55°10' E 014°16'1313.2
2016-Sep-07 01:33N 55°11' E 013°53'1313.0
2016-Sep-07 00:34N 55°12' E 013°30'  

Dump ship's entire track history